Basin, Montana
Current Conditions -  °F | °C
As of 4:53 PM on Saturday 25 Oct 2014 (Local Time) from KBTM Reporting Station
Clear Clear  
Wind Chill: 64°   Ceiling: Unl
Heat Index: 64°   Visibility: 10mi
Dew Point: 31°   Wind: 17mph
Humidity: 29%   Direction: 160°SSE
Pressure: 29.81"   Gusts: 23mph
Location:  46.27°N, 112.26°W
Report Text: KBTM 252253Z AUTO 16015G20KT 10SM CLR 18/M01 A2981 RMK AO2 SLP071 T01781006
Loading
Personal Weather Stations






























Interactive Weather Map New forecast layout! Learn more

10-Day Weather Forecast

Advertisements
Track Severe Weather on mobile